sensor_id;sensor_type;location;lat;lon;timestamp;P1;durP1;ratioP1;P2;durP2;ratioP2
211;SDS011;16228;48.800;9.002;2023-07-13T00:00:48;2.77;;;1.60;;
211;SDS011;16228;48.800;9.002;2023-07-13T00:03:15;2.67;;;1.87;;
211;SDS011;16228;48.800;9.002;2023-07-13T00:05:42;2.80;;;2.10;;
211;SDS011;16228;48.800;9.002;2023-07-13T00:08:09;2.60;;;1.40;;
211;SDS011;16228;48.800;9.002;2023-07-13T00:10:40;2.93;;;1.93;;
211;SDS011;16228;48.800;9.002;2023-07-13T00:13:08;2.00;;;1.60;;
211;SDS011;16228;48.800;9.002;2023-07-13T00:15:35;3.50;;;1.30;;
211;SDS011;16228;48.800;9.002;2023-07-13T00:18:04;1.97;;;1.70;;
211;SDS011;16228;48.800;9.002;2023-07-13T00:20:31;3.20;;;1.80;;
211;SDS011;16228;48.800;9.002;2023-07-13T00:22:58;2.27;;;1.77;;
211;SDS011;16228;48.800;9.002;2023-07-13T00:25:25;2.90;;;1.73;;
211;SDS011;16228;48.800;9.002;2023-07-13T00:27:53;2.03;;;1.63;;
211;SDS011;16228;48.800;9.002;2023-07-13T00:30:21;3.37;;;1.80;;
211;SDS011;16228;48.800;9.002;2023-07-13T00:32:48;2.47;;;1.70;;
211;SDS011;16228;48.800;9.002;2023-07-13T00:35:16;2.70;;;1.77;;
211;SDS011;16228;48.800;9.002;2023-07-13T00:37:44;2.63;;;1.80;;
211;SDS011;16228;48.800;9.002;2023-07-13T00:40:11;3.30;;;1.43;;
211;SDS011;16228;48.800;9.002;2023-07-13T00:42:39;1.33;;;1.20;;
211;SDS011;16228;48.800;9.002;2023-07-13T00:46:02;1.73;;;1.50;;
211;SDS011;16228;48.800;9.002;2023-07-13T00:48:19;2.47;;;1.20;;
211;SDS011;16228;48.800;9.002;2023-07-13T00:50:48;2.03;;;1.13;;
211;SDS011;16228;48.800;9.002;2023-07-13T00:53:18;3.03;;;1.10;;
211;SDS011;16228;48.800;9.002;2023-07-13T00:55:46;3.00;;;1.10;;
211;SDS011;16228;48.800;9.002;2023-07-13T00:58:14;5.67;;;1.47;;
211;SDS011;16228;48.800;9.002;2023-07-13T01:00:41;2.03;;;1.40;;
211;SDS011;16228;48.800;9.002;2023-07-13T01:03:09;2.77;;;1.10;;
211;SDS011;16228;48.800;9.002;2023-07-13T01:05:37;2.37;;;1.40;;
211;SDS011;16228;48.800;9.002;2023-07-13T01:08:05;1.53;;;1.37;;
211;SDS011;16228;48.800;9.002;2023-07-13T01:10:32;2.93;;;1.00;;
211;SDS011;16228;48.800;9.002;2023-07-13T01:13:04;5.90;;;1.60;;
211;SDS011;16228;48.800;9.002;2023-07-13T01:15:39;1.63;;;1.23;;
211;SDS011;16228;48.800;9.002;2023-07-13T01:18:08;2.10;;;1.20;;
211;SDS011;16228;48.800;9.002;2023-07-13T01:20:38;5.00;;;1.30;;
211;SDS011;16228;48.800;9.002;2023-07-13T01:23:08;1.77;;;1.50;;
211;SDS011;16228;48.800;9.002;2023-07-13T01:25:36;4.30;;;1.37;;
211;SDS011;16228;48.800;9.002;2023-07-13T01:28:04;5.17;;;1.30;;
211;SDS011;16228;48.800;9.002;2023-07-13T01:30:33;5.10;;;1.60;;
211;SDS011;16228;48.800;9.002;2023-07-13T01:33:01;2.60;;;1.10;;
211;SDS011;16228;48.800;9.002;2023-07-13T01:35:29;4.10;;;1.40;;
211;SDS011;16228;48.800;9.002;2023-07-13T01:37:56;2.30;;;1.07;;
211;SDS011;16228;48.800;9.002;2023-07-13T01:40:24;1.93;;;1.60;;
211;SDS011;16228;48.800;9.002;2023-07-13T01:42:51;2.80;;;1.20;;
211;SDS011;16228;48.800;9.002;2023-07-13T01:45:18;5.80;;;1.50;;
211;SDS011;16228;48.800;9.002;2023-07-13T01:47:45;4.53;;;1.60;;
211;SDS011;16228;48.800;9.002;2023-07-13T01:50:12;2.83;;;1.57;;
211;SDS011;16228;48.800;9.002;2023-07-13T01:52:39;5.57;;;1.47;;
211;SDS011;16228;48.800;9.002;2023-07-13T01:55:06;1.70;;;1.40;;
211;SDS011;16228;48.800;9.002;2023-07-13T01:57:35;4.33;;;1.80;;
211;SDS011;16228;48.800;9.002;2023-07-13T02:00:03;4.23;;;1.50;;
211;SDS011;16228;48.800;9.002;2023-07-13T02:02:31;1.80;;;1.37;;
211;SDS011;16228;48.800;9.002;2023-07-13T02:04:58;2.33;;;1.63;;
211;SDS011;16228;48.800;9.002;2023-07-13T02:07:25;4.43;;;1.77;;
211;SDS011;16228;48.800;9.002;2023-07-13T02:09:52;1.83;;;1.50;;
211;SDS011;16228;48.800;9.002;2023-07-13T02:12:19;2.80;;;1.50;;
211;SDS011;16228;48.800;9.002;2023-07-13T02:14:47;3.10;;;1.73;;
211;SDS011;16228;48.800;9.002;2023-07-13T02:17:15;6.17;;;2.03;;
211;SDS011;16228;48.800;9.002;2023-07-13T02:19:42;3.47;;;1.80;;
211;SDS011;16228;48.800;9.002;2023-07-13T02:22:09;3.60;;;1.90;;
211;SDS011;16228;48.800;9.002;2023-07-13T02:24:36;3.73;;;1.80;;
211;SDS011;16228;48.800;9.002;2023-07-13T02:27:03;4.47;;;2.10;;
211;SDS011;16228;48.800;9.002;2023-07-13T02:29:30;4.40;;;1.53;;
211;SDS011;16228;48.800;9.002;2023-07-13T02:31:59;2.77;;;1.90;;
211;SDS011;16228;48.800;9.002;2023-07-13T02:34:26;3.47;;;1.70;;
211;SDS011;16228;48.800;9.002;2023-07-13T02:36:53;3.33;;;1.83;;
211;SDS011;16228;48.800;9.002;2023-07-13T02:39:20;2.70;;;1.87;;
211;SDS011;16228;48.800;9.002;2023-07-13T02:41:47;3.33;;;1.70;;
211;SDS011;16228;48.800;9.002;2023-07-13T02:44:14;4.53;;;1.73;;
211;SDS011;16228;48.800;9.002;2023-07-13T02:46:41;1.97;;;1.77;;
211;SDS011;16228;48.800;9.002;2023-07-13T02:49:09;3.00;;;1.60;;
211;SDS011;16228;48.800;9.002;2023-07-13T02:51:36;4.20;;;2.03;;
211;SDS011;16228;48.800;9.002;2023-07-13T02:54:04;4.83;;;2.00;;
211;SDS011;16228;48.800;9.002;2023-07-13T02:56:33;2.70;;;1.97;;
211;SDS011;16228;48.800;9.002;2023-07-13T02:59:00;3.73;;;2.40;;
211;SDS011;16228;48.800;9.002;2023-07-13T03:01:27;3.50;;;2.27;;
211;SDS011;16228;48.800;9.002;2023-07-13T03:03:54;3.27;;;2.60;;
211;SDS011;16228;48.800;9.002;2023-07-13T03:06:23;4.03;;;3.13;;
211;SDS011;16228;48.800;9.002;2023-07-13T03:08:50;2.77;;;2.33;;
211;SDS011;16228;48.800;9.002;2023-07-13T03:11:17;4.40;;;2.40;;
211;SDS011;16228;48.800;9.002;2023-07-13T03:13:45;2.77;;;2.50;;
211;SDS011;16228;48.800;9.002;2023-07-13T03:16:13;3.70;;;2.93;;
211;SDS011;16228;48.800;9.002;2023-07-13T03:18:42;2.90;;;2.70;;
211;SDS011;16228;48.800;9.002;2023-07-13T03:21:09;2.60;;;2.30;;
211;SDS011;16228;48.800;9.002;2023-07-13T03:23:37;4.30;;;3.97;;
211;SDS011;16228;48.800;9.002;2023-07-13T03:26:06;2.90;;;2.70;;
211;SDS011;16228;48.800;9.002;2023-07-13T03:28:34;3.37;;;3.07;;
211;SDS011;16228;48.800;9.002;2023-07-13T03:31:02;5.60;;;4.20;;
211;SDS011;16228;48.800;9.002;2023-07-13T03:33:31;3.33;;;3.03;;
211;SDS011;16228;48.800;9.002;2023-07-13T03:35:58;4.00;;;3.57;;
211;SDS011;16228;48.800;9.002;2023-07-13T03:38:25;4.13;;;2.37;;
211;SDS011;16228;48.800;9.002;2023-07-13T03:40:53;3.87;;;2.60;;
211;SDS011;16228;48.800;9.002;2023-07-13T03:43:20;3.60;;;2.87;;
211;SDS011;16228;48.800;9.002;2023-07-13T03:45:47;2.77;;;2.53;;
211;SDS011;16228;48.800;9.002;2023-07-13T03:48:14;6.87;;;2.63;;
211;SDS011;16228;48.800;9.002;2023-07-13T03:50:42;5.27;;;2.80;;
211;SDS011;16228;48.800;9.002;2023-07-13T03:53:08;5.10;;;2.10;;
211;SDS011;16228;48.800;9.002;2023-07-13T03:55:35;5.73;;;2.27;;
211;SDS011;16228;48.800;9.002;2023-07-13T04:00:56;3.47;;;2.07;;
211;SDS011;16228;48.800;9.002;2023-07-13T04:03:24;3.20;;;1.87;;
211;SDS011;16228;48.800;9.002;2023-07-13T04:05:54;5.90;;;2.20;;
211;SDS011;16228;48.800;9.002;2023-07-13T04:08:25;4.07;;;2.00;;
211;SDS011;16228;48.800;9.002;2023-07-13T04:10:53;5.10;;;1.90;;
211;SDS011;16228;48.800;9.002;2023-07-13T04:13:20;3.00;;;1.93;;
211;SDS011;16228;48.800;9.002;2023-07-13T04:15:49;2.07;;;1.80;;
211;SDS011;16228;48.800;9.002;2023-07-13T04:18:16;6.07;;;2.43;;
211;SDS011;16228;48.800;9.002;2023-07-13T04:20:43;3.27;;;2.47;;
211;SDS011;16228;48.800;9.002;2023-07-13T04:23:10;3.27;;;2.20;;
211;SDS011;16228;48.800;9.002;2023-07-13T04:25:37;3.40;;;1.83;;
211;SDS011;16228;48.800;9.002;2023-07-13T04:28:04;3.53;;;1.83;;
211;SDS011;16228;48.800;9.002;2023-07-13T04:30:32;3.97;;;2.07;;
211;SDS011;16228;48.800;9.002;2023-07-13T04:33:00;3.07;;;2.00;;
211;SDS011;16228;48.800;9.002;2023-07-13T04:35:27;4.60;;;2.40;;
211;SDS011;16228;48.800;9.002;2023-07-13T04:37:54;4.63;;;2.20;;
211;SDS011;16228;48.800;9.002;2023-07-13T04:40:21;9.17;;;2.70;;
211;SDS011;16228;48.800;9.002;2023-07-13T04:42:48;3.97;;;2.83;;
211;SDS011;16228;48.800;9.002;2023-07-13T04:45:15;2.57;;;2.37;;
211;SDS011;16228;48.800;9.002;2023-07-13T04:47:44;3.90;;;3.20;;
211;SDS011;16228;48.800;9.002;2023-07-13T04:50:13;5.13;;;3.10;;
211;SDS011;16228;48.800;9.002;2023-07-13T04:52:45;4.33;;;3.97;;
211;SDS011;16228;48.800;9.002;2023-07-13T04:55:12;4.17;;;3.87;;
211;SDS011;16228;48.800;9.002;2023-07-13T04:57:39;4.73;;;3.57;;
211;SDS011;16228;48.800;9.002;2023-07-13T05:00:06;3.87;;;3.50;;
211;SDS011;16228;48.800;9.002;2023-07-13T05:02:35;3.93;;;2.67;;
211;SDS011;16228;48.800;9.002;2023-07-13T05:05:04;3.33;;;3.10;;
211;SDS011;16228;48.800;9.002;2023-07-13T05:07:33;5.27;;;2.40;;
211;SDS011;16228;48.800;9.002;2023-07-13T05:10:00;4.50;;;2.37;;
211;SDS011;16228;48.800;9.002;2023-07-13T05:12:27;3.20;;;2.30;;
211;SDS011;16228;48.800;9.002;2023-07-13T05:14:54;4.60;;;2.00;;
211;SDS011;16228;48.800;9.002;2023-07-13T05:17:21;4.33;;;3.40;;
211;SDS011;16228;48.800;9.002;2023-07-13T05:19:48;2.73;;;2.20;;
211;SDS011;16228;48.800;9.002;2023-07-13T05:22:15;5.70;;;2.10;;
211;SDS011;16228;48.800;9.002;2023-07-13T05:24:43;5.70;;;2.97;;
211;SDS011;16228;48.800;9.002;2023-07-13T05:27:10;3.87;;;2.30;;
211;SDS011;16228;48.800;9.002;2023-07-13T05:29:37;3.83;;;2.30;;
211;SDS011;16228;48.800;9.002;2023-07-13T05:32:04;3.77;;;1.90;;
211;SDS011;16228;48.800;9.002;2023-07-13T05:34:32;4.43;;;2.70;;
211;SDS011;16228;48.800;9.002;2023-07-13T05:36:58;4.10;;;2.13;;
211;SDS011;16228;48.800;9.002;2023-07-13T05:39:25;5.27;;;1.90;;
211;SDS011;16228;48.800;9.002;2023-07-13T05:41:54;4.07;;;1.97;;
211;SDS011;16228;48.800;9.002;2023-07-13T05:44:21;2.70;;;1.70;;
211;SDS011;16228;48.800;9.002;2023-07-13T05:46:48;3.60;;;2.27;;
211;SDS011;16228;48.800;9.002;2023-07-13T05:49:15;4.70;;;2.07;;
211;SDS011;16228;48.800;9.002;2023-07-13T05:51:42;3.50;;;2.10;;
211;SDS011;16228;48.800;9.002;2023-07-13T05:54:09;5.23;;;2.60;;
211;SDS011;16228;48.800;9.002;2023-07-13T05:56:36;6.40;;;2.10;;
211;SDS011;16228;48.800;9.002;2023-07-13T05:59:04;3.23;;;1.97;;
211;SDS011;16228;48.800;9.002;2023-07-13T06:01:31;6.00;;;2.00;;
211;SDS011;16228;48.800;9.002;2023-07-13T06:03:58;2.80;;;1.83;;
211;SDS011;16228;48.800;9.002;2023-07-13T06:06:25;4.97;;;1.97;;
211;SDS011;16228;48.800;9.002;2023-07-13T06:08:52;3.37;;;2.10;;
211;SDS011;16228;48.800;9.002;2023-07-13T06:11:20;3.67;;;2.10;;
211;SDS011;16228;48.800;9.002;2023-07-13T06:13:48;3.70;;;2.10;;
211;SDS011;16228;48.800;9.002;2023-07-13T06:16:17;1.93;;;1.60;;
211;SDS011;16228;48.800;9.002;2023-07-13T06:18:44;3.33;;;2.47;;
211;SDS011;16228;48.800;9.002;2023-07-13T06:21:13;4.03;;;2.30;;
211;SDS011;16228;48.800;9.002;2023-07-13T06:23:41;4.60;;;2.30;;
211;SDS011;16228;48.800;9.002;2023-07-13T06:26:09;1.73;;;1.63;;
211;SDS011;16228;48.800;9.002;2023-07-13T06:28:37;4.27;;;2.20;;
211;SDS011;16228;48.800;9.002;2023-07-13T06:31:05;4.47;;;1.93;;
211;SDS011;16228;48.800;9.002;2023-07-13T06:33:34;2.43;;;1.60;;
211;SDS011;16228;48.800;9.002;2023-07-13T06:36:02;2.20;;;1.60;;
211;SDS011;16228;48.800;9.002;2023-07-13T06:38:30;5.80;;;1.40;;
211;SDS011;16228;48.800;9.002;2023-07-13T06:40:57;3.90;;;1.73;;
211;SDS011;16228;48.800;9.002;2023-07-13T06:43:24;1.93;;;1.60;;
211;SDS011;16228;48.800;9.002;2023-07-13T06:45:54;3.30;;;1.57;;
211;SDS011;16228;48.800;9.002;2023-07-13T06:48:21;1.47;;;1.37;;
211;SDS011;16228;48.800;9.002;2023-07-13T06:50:50;4.10;;;1.50;;
211;SDS011;16228;48.800;9.002;2023-07-13T06:53:18;3.33;;;1.60;;
211;SDS011;16228;48.800;9.002;2023-07-13T06:55:46;3.13;;;1.57;;
211;SDS011;16228;48.800;9.002;2023-07-13T06:58:14;1.87;;;1.43;;
211;SDS011;16228;48.800;9.002;2023-07-13T07:00:42;2.20;;;1.40;;
211;SDS011;16228;48.800;9.002;2023-07-13T07:03:08;1.90;;;1.50;;
211;SDS011;16228;48.800;9.002;2023-07-13T07:05:36;4.93;;;1.30;;
211;SDS011;16228;48.800;9.002;2023-07-13T07:08:04;2.33;;;1.40;;
211;SDS011;16228;48.800;9.002;2023-07-13T07:10:31;2.10;;;1.30;;
211;SDS011;16228;48.800;9.002;2023-07-13T07:12:58;2.20;;;1.63;;
211;SDS011;16228;48.800;9.002;2023-07-13T07:15:25;2.13;;;1.10;;
211;SDS011;16228;48.800;9.002;2023-07-13T07:17:52;3.15;;;1.95;;
211;SDS011;16228;48.800;9.002;2023-07-13T07:20:19;2.55;;;1.35;;
211;SDS011;16228;48.800;9.002;2023-07-13T07:22:46;4.55;;;1.60;;
211;SDS011;16228;48.800;9.002;2023-07-13T07:25:15;2.78;;;1.33;;
211;SDS011;16228;48.800;9.002;2023-07-13T07:27:42;2.67;;;1.40;;
211;SDS011;16228;48.800;9.002;2023-07-13T07:30:10;5.07;;;1.52;;
211;SDS011;16228;48.800;9.002;2023-07-13T07:32:37;2.03;;;1.23;;
211;SDS011;16228;48.800;9.002;2023-07-13T07:35:04;3.53;;;1.52;;
211;SDS011;16228;48.800;9.002;2023-07-13T07:37:32;2.75;;;1.30;;
211;SDS011;16228;48.800;9.002;2023-07-13T07:39:59;3.70;;;1.20;;
211;SDS011;16228;48.800;9.002;2023-07-13T07:42:27;1.77;;;1.50;;
211;SDS011;16228;48.800;9.002;2023-07-13T07:44:54;1.48;;;1.20;;
211;SDS011;16228;48.800;9.002;2023-07-13T07:47:21;2.08;;;1.40;;
211;SDS011;16228;48.800;9.002;2023-07-13T07:49:49;1.60;;;1.08;;
211;SDS011;16228;48.800;9.002;2023-07-13T07:52:16;3.67;;;1.17;;
211;SDS011;16228;48.800;9.002;2023-07-13T07:54:43;4.78;;;1.75;;
211;SDS011;16228;48.800;9.002;2023-07-13T07:57:10;3.95;;;1.10;;
211;SDS011;16228;48.800;9.002;2023-07-13T07:59:38;2.00;;;1.10;;
211;SDS011;16228;48.800;9.002;2023-07-13T08:02:06;2.05;;;1.00;;
211;SDS011;16228;48.800;9.002;2023-07-13T08:04:34;2.97;;;1.17;;
211;SDS011;16228;48.800;9.002;2023-07-13T08:07:01;2.88;;;1.45;;
211;SDS011;16228;48.800;9.002;2023-07-13T08:09:29;2.47;;;1.17;;
211;SDS011;16228;48.800;9.002;2023-07-13T08:11:55;5.20;;;1.58;;
211;SDS011;16228;48.800;9.002;2023-07-13T08:14:22;3.17;;;1.50;;
211;SDS011;16228;48.800;9.002;2023-07-13T08:16:51;1.50;;;1.00;;
211;SDS011;16228;48.800;9.002;2023-07-13T08:19:18;2.08;;;1.05;;
211;SDS011;16228;48.800;9.002;2023-07-13T08:21:45;3.05;;;1.13;;
211;SDS011;16228;48.800;9.002;2023-07-13T08:24:14;4.75;;;1.10;;
211;SDS011;16228;48.800;9.002;2023-07-13T08:26:43;2.83;;;1.20;;
211;SDS011;16228;48.800;9.002;2023-07-13T08:29:11;3.15;;;1.30;;
211;SDS011;16228;48.800;9.002;2023-07-13T08:31:38;3.53;;;1.20;;
211;SDS011;16228;48.800;9.002;2023-07-13T08:34:06;2.42;;;1.17;;
211;SDS011;16228;48.800;9.002;2023-07-13T08:36:33;1.88;;;1.00;;
211;SDS011;16228;48.800;9.002;2023-07-13T08:39:00;1.23;;;1.13;;
211;SDS011;16228;48.800;9.002;2023-07-13T08:41:27;2.58;;;1.30;;
211;SDS011;16228;48.800;9.002;2023-07-13T08:43:56;2.40;;;1.17;;
211;SDS011;16228;48.800;9.002;2023-07-13T08:46:25;2.97;;;1.15;;
211;SDS011;16228;48.800;9.002;2023-07-13T08:49:01;3.70;;;1.52;;
211;SDS011;16228;48.800;9.002;2023-07-13T08:51:37;2.42;;;1.33;;
211;SDS011;16228;48.800;9.002;2023-07-13T08:54:10;2.15;;;1.02;;
211;SDS011;16228;48.800;9.002;2023-07-13T08:56:44;1.60;;;1.23;;
211;SDS011;16228;48.800;9.002;2023-07-13T08:59:13;1.85;;;1.10;;
211;SDS011;16228;48.800;9.002;2023-07-13T09:01:47;1.48;;;1.27;;
211;SDS011;16228;48.800;9.002;2023-07-13T09:04:34;2.28;;;1.17;;
211;SDS011;16228;48.800;9.002;2023-07-13T09:07:11;1.98;;;1.30;;
211;SDS011;16228;48.800;9.002;2023-07-13T09:09:50;2.33;;;1.30;;
211;SDS011;16228;48.800;9.002;2023-07-13T09:12:25;3.65;;;1.67;;
211;SDS011;16228;48.800;9.002;2023-07-13T09:14:58;2.78;;;1.45;;
211;SDS011;16228;48.800;9.002;2023-07-13T09:17:32;1.77;;;1.27;;
211;SDS011;16228;48.800;9.002;2023-07-13T09:20:09;3.73;;;1.43;;
211;SDS011;16228;48.800;9.002;2023-07-13T09:22:44;2.20;;;1.40;;
211;SDS011;16228;48.800;9.002;2023-07-13T09:25:18;3.87;;;1.53;;
211;SDS011;16228;48.800;9.002;2023-07-13T09:27:51;4.07;;;1.40;;
211;SDS011;16228;48.800;9.002;2023-07-13T09:30:24;3.60;;;1.50;;
211;SDS011;16228;48.800;9.002;2023-07-13T09:32:59;4.40;;;1.35;;
211;SDS011;16228;48.800;9.002;2023-07-13T09:35:28;1.98;;;1.33;;
211;SDS011;16228;48.800;9.002;2023-07-13T09:38:03;2.08;;;1.30;;
211;SDS011;16228;48.800;9.002;2023-07-13T09:40:40;4.40;;;1.80;;
211;SDS011;16228;48.800;9.002;2023-07-13T09:43:24;4.97;;;1.40;;
211;SDS011;16228;48.800;9.002;2023-07-13T09:45:54;1.20;;;1.00;;
211;SDS011;16228;48.800;9.002;2023-07-13T09:48:21;3.45;;;1.30;;
211;SDS011;16228;48.800;9.002;2023-07-13T09:50:49;2.05;;;1.38;;
211;SDS011;16228;48.800;9.002;2023-07-13T09:53:22;3.15;;;1.20;;
211;SDS011;16228;48.800;9.002;2023-07-13T09:55:49;4.60;;;1.83;;
211;SDS011;16228;48.800;9.002;2023-07-13T09:58:17;2.95;;;1.38;;
211;SDS011;16228;48.800;9.002;2023-07-13T10:00:53;3.88;;;1.77;;
211;SDS011;16228;48.800;9.002;2023-07-13T10:03:23;5.47;;;1.70;;
211;SDS011;16228;48.800;9.002;2023-07-13T10:05:53;4.57;;;1.42;;
211;SDS011;16228;48.800;9.002;2023-07-13T10:08:21;1.70;;;1.38;;
211;SDS011;16228;48.800;9.002;2023-07-13T10:10:53;2.92;;;1.88;;
211;SDS011;16228;48.800;9.002;2023-07-13T10:13:35;3.75;;;1.38;;
211;SDS011;16228;48.800;9.002;2023-07-13T10:16:03;4.03;;;1.67;;
211;SDS011;16228;48.800;9.002;2023-07-13T10:18:35;2.72;;;1.63;;
211;SDS011;16228;48.800;9.002;2023-07-13T10:21:14;2.60;;;1.42;;
211;SDS011;16228;48.800;9.002;2023-07-13T10:23:45;1.88;;;1.50;;
211;SDS011;16228;48.800;9.002;2023-07-13T10:26:25;3.10;;;1.20;;
211;SDS011;16228;48.800;9.002;2023-07-13T10:28:56;3.67;;;1.20;;
211;SDS011;16228;48.800;9.002;2023-07-13T10:31:29;3.75;;;1.52;;
211;SDS011;16228;48.800;9.002;2023-07-13T10:33:57;2.15;;;1.20;;
211;SDS011;16228;48.800;9.002;2023-07-13T10:36:30;2.88;;;1.48;;
211;SDS011;16228;48.800;9.002;2023-07-13T10:39:02;5.13;;;1.50;;
211;SDS011;16228;48.800;9.002;2023-07-13T10:41:32;4.90;;;1.23;;
211;SDS011;16228;48.800;9.002;2023-07-13T10:44:04;4.20;;;1.42;;
211;SDS011;16228;48.800;9.002;2023-07-13T10:46:37;4.30;;;1.38;;
211;SDS011;16228;48.800;9.002;2023-07-13T10:49:05;2.42;;;1.60;;
211;SDS011;16228;48.800;9.002;2023-07-13T10:51:35;1.63;;;1.27;;
211;SDS011;16228;48.800;9.002;2023-07-13T10:54:18;4.82;;;1.45;;
211;SDS011;16228;48.800;9.002;2023-07-13T10:56:49;2.38;;;1.75;;
211;SDS011;16228;48.800;9.002;2023-07-13T10:59:19;2.78;;;1.65;;
211;SDS011;16228;48.800;9.002;2023-07-13T11:01:55;4.32;;;1.92;;
211;SDS011;16228;48.800;9.002;2023-07-13T11:04:24;2.70;;;1.43;;
211;SDS011;16228;48.800;9.002;2023-07-13T11:06:56;2.10;;;1.30;;
211;SDS011;16228;48.800;9.002;2023-07-13T11:09:34;2.77;;;1.50;;
211;SDS011;16228;48.800;9.002;2023-07-13T11:12:25;1.87;;;1.60;;
211;SDS011;16228;48.800;9.002;2023-07-13T11:15:11;3.27;;;1.97;;
211;SDS011;16228;48.800;9.002;2023-07-13T11:17:47;3.33;;;1.80;;
211;SDS011;16228;48.800;9.002;2023-07-13T11:20:23;1.17;;;1.07;;
211;SDS011;16228;48.800;9.002;2023-07-13T11:23:07;3.03;;;1.27;;
211;SDS011;16228;48.800;9.002;2023-07-13T11:25:47;3.40;;;1.65;;
211;SDS011;16228;48.800;9.002;2023-07-13T11:28:21;2.10;;;1.58;;
211;SDS011;16228;48.800;9.002;2023-07-13T11:30:50;3.90;;;1.35;;
211;SDS011;16228;48.800;9.002;2023-07-13T11:33:55;4.72;;;1.45;;
211;SDS011;16228;48.800;9.002;2023-07-13T11:36:27;2.88;;;1.20;;
211;SDS011;16228;48.800;9.002;2023-07-13T11:38:59;2.13;;;1.30;;
211;SDS011;16228;48.800;9.002;2023-07-13T11:41:31;3.72;;;1.55;;
211;SDS011;16228;48.800;9.002;2023-07-13T11:44:07;4.18;;;1.60;;
211;SDS011;16228;48.800;9.002;2023-07-13T11:46:38;3.33;;;1.58;;
211;SDS011;16228;48.800;9.002;2023-07-13T11:49:11;4.22;;;1.92;;
211;SDS011;16228;48.800;9.002;2023-07-13T11:51:42;2.55;;;1.42;;
211;SDS011;16228;48.800;9.002;2023-07-13T11:54:14;2.75;;;1.25;;
211;SDS011;16228;48.800;9.002;2023-07-13T11:56:49;2.65;;;1.30;;
211;SDS011;16228;48.800;9.002;2023-07-13T11:59:16;2.65;;;1.60;;
211;SDS011;16228;48.800;9.002;2023-07-13T12:01:46;4.38;;;1.50;;
211;SDS011;16228;48.800;9.002;2023-07-13T12:04:20;2.88;;;1.42;;
211;SDS011;16228;48.800;9.002;2023-07-13T12:06:54;3.15;;;1.63;;
211;SDS011;16228;48.800;9.002;2023-07-13T12:09:25;2.08;;;1.10;;
211;SDS011;16228;48.800;9.002;2023-07-13T12:11:56;2.03;;;1.40;;
211;SDS011;16228;48.800;9.002;2023-07-13T12:14:25;5.18;;;1.75;;
211;SDS011;16228;48.800;9.002;2023-07-13T12:16:52;1.67;;;1.58;;
211;SDS011;16228;48.800;9.002;2023-07-13T12:19:20;1.30;;;1.20;;
211;SDS011;16228;48.800;9.002;2023-07-13T12:21:50;2.30;;;2.10;;
211;SDS011;16228;48.800;9.002;2023-07-13T12:24:20;3.92;;;1.55;;
211;SDS011;16228;48.800;9.002;2023-07-13T12:26:52;3.42;;;1.85;;
211;SDS011;16228;48.800;9.002;2023-07-13T12:29:21;3.55;;;1.92;;
211;SDS011;16228;48.800;9.002;2023-07-13T12:31:49;2.25;;;1.60;;
211;SDS011;16228;48.800;9.002;2023-07-13T12:34:18;1.80;;;1.63;;
211;SDS011;16228;48.800;9.002;2023-07-13T12:36:46;3.05;;;1.80;;
211;SDS011;16228;48.800;9.002;2023-07-13T12:39:16;5.45;;;1.60;;
211;SDS011;16228;48.800;9.002;2023-07-13T12:41:46;2.13;;;1.92;;
211;SDS011;16228;48.800;9.002;2023-07-13T12:44:15;2.13;;;1.92;;
211;SDS011;16228;48.800;9.002;2023-07-13T12:46:53;1.87;;;1.60;;
211;SDS011;16228;48.800;9.002;2023-07-13T12:49:24;4.20;;;1.60;;
211;SDS011;16228;48.800;9.002;2023-07-13T12:51:57;3.20;;;1.80;;
211;SDS011;16228;48.800;9.002;2023-07-13T12:54:25;2.37;;;1.87;;
211;SDS011;16228;48.800;9.002;2023-07-13T12:56:53;4.45;;;1.23;;
211;SDS011;16228;48.800;9.002;2023-07-13T12:59:24;4.65;;;4.35;;
211;SDS011;16228;48.800;9.002;2023-07-13T13:01:59;2.97;;;1.60;;
211;SDS011;16228;48.800;9.002;2023-07-13T13:04:27;2.38;;;1.45;;
211;SDS011;16228;48.800;9.002;2023-07-13T13:07:02;2.42;;;1.60;;
211;SDS011;16228;48.800;9.002;2023-07-13T13:09:30;3.30;;;1.23;;
211;SDS011;16228;48.800;9.002;2023-07-13T13:11:57;2.25;;;1.33;;
211;SDS011;16228;48.800;9.002;2023-07-13T13:14:24;2.45;;;1.63;;
211;SDS011;16228;48.800;9.002;2023-07-13T13:16:52;2.10;;;1.40;;
211;SDS011;16228;48.800;9.002;2023-07-13T13:19:22;4.63;;;1.65;;
211;SDS011;16228;48.800;9.002;2023-07-13T13:21:51;3.63;;;2.10;;
211;SDS011;16228;48.800;9.002;2023-07-13T13:24:20;3.10;;;1.23;;
211;SDS011;16228;48.800;9.002;2023-07-13T13:26:50;2.00;;;1.50;;
211;SDS011;16228;48.800;9.002;2023-07-13T13:29:19;2.58;;;1.25;;
211;SDS011;16228;48.800;9.002;2023-07-13T13:31:50;2.53;;;1.60;;
211;SDS011;16228;48.800;9.002;2023-07-13T13:34:17;3.50;;;1.60;;
211;SDS011;16228;48.800;9.002;2023-07-13T13:36:46;1.90;;;1.80;;
211;SDS011;16228;48.800;9.002;2023-07-13T13:39:18;1.60;;;1.40;;
211;SDS011;16228;48.800;9.002;2023-07-13T13:41:48;2.47;;;1.50;;
211;SDS011;16228;48.800;9.002;2023-07-13T13:44:16;2.70;;;1.48;;
211;SDS011;16228;48.800;9.002;2023-07-13T13:46:45;2.13;;;1.55;;
211;SDS011;16228;48.800;9.002;2023-07-13T13:49:14;3.63;;;1.60;;
211;SDS011;16228;48.800;9.002;2023-07-13T13:51:43;3.05;;;1.50;;
211;SDS011;16228;48.800;9.002;2023-07-13T13:54:13;2.72;;;1.45;;
211;SDS011;16228;48.800;9.002;2023-07-13T13:56:41;1.88;;;1.67;;
211;SDS011;16228;48.800;9.002;2023-07-13T13:59:09;2.37;;;1.50;;
211;SDS011;16228;48.800;9.002;2023-07-13T14:01:36;2.10;;;1.57;;
211;SDS011;16228;48.800;9.002;2023-07-13T14:04:05;3.10;;;1.60;;
211;SDS011;16228;48.800;9.002;2023-07-13T14:06:33;2.57;;;1.50;;
211;SDS011;16228;48.800;9.002;2023-07-13T14:09:00;2.53;;;1.27;;
211;SDS011;16228;48.800;9.002;2023-07-13T14:11:30;2.60;;;1.60;;
211;SDS011;16228;48.800;9.002;2023-07-13T14:13:58;2.97;;;1.63;;
211;SDS011;16228;48.800;9.002;2023-07-13T14:16:29;4.00;;;2.07;;
211;SDS011;16228;48.800;9.002;2023-07-13T14:18:58;4.00;;;1.20;;
211;SDS011;16228;48.800;9.002;2023-07-13T14:21:26;3.63;;;1.80;;
211;SDS011;16228;48.800;9.002;2023-07-13T14:23:54;1.50;;;1.40;;
211;SDS011;16228;48.800;9.002;2023-07-13T14:26:22;2.57;;;1.43;;
211;SDS011;16228;48.800;9.002;2023-07-13T14:28:54;1.70;;;1.60;;
211;SDS011;16228;48.800;9.002;2023-07-13T14:31:25;1.50;;;1.40;;
211;SDS011;16228;48.800;9.002;2023-07-13T14:33:54;1.97;;;1.47;;
211;SDS011;16228;48.800;9.002;2023-07-13T14:36:25;2.20;;;1.53;;
211;SDS011;16228;48.800;9.002;2023-07-13T14:38:55;2.53;;;2.10;;
211;SDS011;16228;48.800;9.002;2023-07-13T14:41:22;3.83;;;2.13;;
211;SDS011;16228;48.800;9.002;2023-07-13T14:43:50;3.70;;;1.90;;
211;SDS011;16228;48.800;9.002;2023-07-13T14:46:24;2.37;;;1.97;;
211;SDS011;16228;48.800;9.002;2023-07-13T14:48:57;2.40;;;1.53;;
211;SDS011;16228;48.800;9.002;2023-07-13T14:51:28;6.10;;;2.00;;
211;SDS011;16228;48.800;9.002;2023-07-13T14:53:58;2.70;;;1.60;;
211;SDS011;16228;48.800;9.002;2023-07-13T14:56:27;3.10;;;1.80;;
211;SDS011;16228;48.800;9.002;2023-07-13T14:58:54;5.00;;;1.50;;
211;SDS011;16228;48.800;9.002;2023-07-13T15:01:22;1.80;;;1.30;;
211;SDS011;16228;48.800;9.002;2023-07-13T15:03:50;4.53;;;4.13;;
211;SDS011;16228;48.800;9.002;2023-07-13T15:06:19;4.17;;;1.70;;
211;SDS011;16228;48.800;9.002;2023-07-13T15:08:46;4.23;;;2.00;;
211;SDS011;16228;48.800;9.002;2023-07-13T15:11:14;3.30;;;2.60;;
211;SDS011;16228;48.800;9.002;2023-07-13T15:13:42;2.63;;;1.93;;
211;SDS011;16228;48.800;9.002;2023-07-13T15:16:13;2.00;;;1.80;;
211;SDS011;16228;48.800;9.002;2023-07-13T15:18:45;2.67;;;1.53;;
211;SDS011;16228;48.800;9.002;2023-07-13T15:21:14;2.80;;;1.50;;
211;SDS011;16228;48.800;9.002;2023-07-13T15:23:45;3.40;;;1.90;;
211;SDS011;16228;48.800;9.002;2023-07-13T15:26:12;1.80;;;1.50;;
211;SDS011;16228;48.800;9.002;2023-07-13T15:28:40;4.60;;;1.57;;
211;SDS011;16228;48.800;9.002;2023-07-13T15:31:15;2.63;;;1.77;;